Time;durP1;ratioP1;P1;durP2;ratioP2;P2;SDS_P1;SDS_P2;PMS_P1;PMS_P2;Temp;Humidity;BMP_temperature;BMP_pressure;BME280_temperature;BME280_humidity;BME280_pressure;Samples;Min_cycle;Max_cycle;Signal;HPM_P1;HPM_P2
2024/01/31 00:00:31;;;;;;;20.02;15.45;;;;;;;;;;4938427;29;20108;-58
2024/01/31 00:02:56;;;;;;;19.90;14.23;;;;;;;;;;4941112;28;20032;-56
2024/01/31 00:05:22;;;;;;;21.48;16.35;;;;;;;;;;4942273;29;20071;-58
2024/01/31 00:07:48;;;;;;;19.02;15.45;;;;;;;;;;4940696;29;20083;-57
2024/01/31 00:10:13;;;;;;;18.95;16.95;;;;;;;;;;4939283;29;20040;-59
2024/01/31 00:12:38;;;;;;;21.13;16.77;;;;;;;;;;4942659;29;20110;-58
2024/01/31 00:15:04;;;;;;;19.85;16.55;;;;;;;;;;4942331;29;20086;-58
2024/01/31 00:17:30;;;;;;;16.27;14.55;;;;;;;;;;4944177;29;20043;-58
2024/01/31 00:19:55;;;;;;;21.63;18.05;;;;;;;;;;4934180;29;20047;-57
2024/01/31 00:22:20;;;;;;;20.00;16.25;;;;;;;;;;4936906;29;20478;-59
2024/01/31 00:24:46;;;;;;;19.92;17.10;;;;;;;;;;4937287;29;20491;-59
2024/01/31 00:27:11;;;;;;;18.98;16.92;;;;;;;;;;4941334;29;20031;-59
2024/01/31 00:29:37;;;;;;;18.85;15.40;;;;;;;;;;4936274;29;20040;-59
2024/01/31 00:32:02;;;;;;;20.50;15.05;;;;;;;;;;4933871;29;20047;-57
2024/01/31 00:34:29;;;;;;;21.00;15.90;;;;;;;;;;4939410;29;20095;-57
2024/01/31 00:36:54;;;;;;;18.48;14.65;;;;;;;;;;4935523;29;20020;-58
2024/01/31 00:39:20;;;;;;;21.67;15.25;;;;;;;;;;4933838;29;20039;-58
2024/01/31 00:41:47;;;;;;;18.02;16.15;;;;;;;;;;4941269;29;20044;-59
2024/01/31 00:44:12;;;;;;;19.10;15.40;;;;;;;;;;4938425;29;20046;-59
2024/01/31 00:46:42;;;;;;;18.10;15.88;;;;;;;;;;4936709;29;20071;-55
2024/01/31 00:49:08;;;;;;;18.27;15.95;;;;;;;;;;4939106;29;20063;-57
2024/01/31 00:51:34;;;;;;;17.50;15.65;;;;;;;;;;4938494;29;20034;-58
2024/01/31 00:54:00;;;;;;;20.35;16.63;;;;;;;;;;4941439;29;20023;-59
2024/01/31 00:56:25;;;;;;;20.75;14.50;;;;;;;;;;4937737;29;20107;-57
2024/01/31 00:58:51;;;;;;;19.23;14.73;;;;;;;;;;4937813;29;20059;-56
2024/01/31 01:01:16;;;;;;;17.08;14.98;;;;;;;;;;4938260;29;20485;-57
2024/01/31 01:03:41;;;;;;;18.67;14.80;;;;;;;;;;4940014;29;20040;-58
2024/01/31 01:06:07;;;;;;;16.08;13.15;;;;;;;;;;4938514;28;20048;-59
2024/01/31 01:08:32;;;;;;;20.52;15.88;;;;;;;;;;4937639;29;20087;-56
2024/01/31 01:10:58;;;;;;;18.90;14.80;;;;;;;;;;4936287;29;20119;-58
2024/01/31 01:13:23;;;;;;;15.65;12.73;;;;;;;;;;4939228;29;20209;-58
2024/01/31 01:15:48;;;;;;;19.35;14.52;;;;;;;;;;4929825;29;20052;-58
2024/01/31 01:18:14;;;;;;;17.05;13.70;;;;;;;;;;4939508;29;20024;-58
2024/01/31 01:20:39;;;;;;;15.30;11.80;;;;;;;;;;4938214;29;20449;-57
2024/01/31 01:23:06;;;;;;;19.67;14.25;;;;;;;;;;4949043;28;20027;-57
2024/01/31 01:25:31;;;;;;;17.60;13.52;;;;;;;;;;4933613;29;20036;-57
2024/01/31 01:27:57;;;;;;;15.10;13.07;;;;;;;;;;4935765;29;20027;-56
2024/01/31 01:30:22;;;;;;;18.10;13.60;;;;;;;;;;4938124;29;20046;-57
2024/01/31 01:32:48;;;;;;;17.48;13.10;;;;;;;;;;4938310;29;20083;-58
2024/01/31 01:35:13;;;;;;;15.98;13.77;;;;;;;;;;4934150;29;20044;-58
2024/01/31 01:37:40;;;;;;;18.55;15.05;;;;;;;;;;4929843;29;20036;-57
2024/01/31 01:40:06;;;;;;;15.95;14.02;;;;;;;;;;4937138;29;20048;-58
2024/01/31 01:42:32;;;;;;;18.35;13.90;;;;;;;;;;4936002;29;20028;-56
2024/01/31 01:44:57;;;;;;;19.30;14.07;;;;;;;;;;4939419;29;20046;-59
2024/01/31 01:47:24;;;;;;;18.73;15.73;;;;;;;;;;4938704;29;20023;-59
2024/01/31 01:49:49;;;;;;;17.27;13.98;;;;;;;;;;4934567;29;20050;-58
2024/01/31 01:52:15;;;;;;;17.92;15.57;;;;;;;;;;4935879;29;20423;-58
2024/01/31 01:54:41;;;;;;;20.27;14.85;;;;;;;;;;4935860;29;20050;-59
2024/01/31 01:57:06;;;;;;;21.13;15.88;;;;;;;;;;4934868;29;20030;-55
2024/01/31 01:59:33;;;;;;;20.52;16.73;;;;;;;;;;4928806;29;20453;-57
2024/01/31 02:01:59;;;;;;;21.05;16.02;;;;;;;;;;4939156;29;20122;-58
2024/01/31 02:04:24;;;;;;;20.65;15.45;;;;;;;;;;4930463;29;20123;-56
2024/01/31 02:06:50;;;;;;;17.65;15.65;;;;;;;;;;4930979;29;20051;-58
2024/01/31 02:09:17;;;;;;;20.85;14.85;;;;;;;;;;4936383;29;20047;-59
2024/01/31 02:11:43;;;;;;;20.05;15.52;;;;;;;;;;4938182;29;20039;-57
2024/01/31 02:14:09;;;;;;;17.65;14.95;;;;;;;;;;4935730;29;20055;-58
2024/01/31 02:16:34;;;;;;;20.05;15.23;;;;;;;;;;4937405;29;20048;-57
2024/01/31 02:18:59;;;;;;;17.33;13.95;;;;;;;;;;4929803;29;20087;-58
2024/01/31 02:21:27;;;;;;;19.50;14.20;;;;;;;;;;4937799;29;20024;-58
2024/01/31 02:23:52;;;;;;;17.13;13.57;;;;;;;;;;4935459;29;20209;-57
2024/01/31 02:26:18;;;;;;;18.80;14.68;;;;;;;;;;4936064;29;20500;-55
2024/01/31 02:28:43;;;;;;;18.65;16.33;;;;;;;;;;4936214;29;20032;-57
2024/01/31 02:31:08;;;;;;;23.17;15.70;;;;;;;;;;4935965;29;20040;-59
2024/01/31 02:33:34;;;;;;;19.20;14.77;;;;;;;;;;4934467;29;20034;-59
2024/01/31 02:35:59;;;;;;;19.00;15.65;;;;;;;;;;4936047;29;20042;-56
2024/01/31 02:38:25;;;;;;;21.88;15.85;;;;;;;;;;4934551;29;20032;-59
2024/01/31 02:40:50;;;;;;;17.67;14.57;;;;;;;;;;4934178;29;20035;-58
2024/01/31 02:43:15;;;;;;;20.90;15.10;;;;;;;;;;4932995;29;20031;-56
2024/01/31 02:45:41;;;;;;;19.20;15.30;;;;;;;;;;4934028;29;20640;-59
2024/01/31 02:48:08;;;;;;;19.52;15.60;;;;;;;;;;4934143;29;20468;-57
2024/01/31 02:50:34;;;;;;;18.58;16.20;;;;;;;;;;4936045;29;20138;-59
2024/01/31 02:53:00;;;;;;;19.40;16.02;;;;;;;;;;4934005;29;20023;-58
2024/01/31 02:55:25;;;;;;;26.42;16.30;;;;;;;;;;4936634;29;20051;-57
2024/01/31 02:57:51;;;;;;;21.55;15.30;;;;;;;;;;4937067;29;20035;-59
2024/01/31 03:00:16;;;;;;;19.85;16.55;;;;;;;;;;4934238;29;20035;-57
2024/01/31 03:02:43;;;;;;;18.45;13.23;;;;;;;;;;4934933;29;20214;-59
2024/01/31 03:05:11;;;;;;;19.88;13.95;;;;;;;;;;4937274;29;20039;-58
2024/01/31 03:07:38;;;;;;;18.73;14.77;;;;;;;;;;4936213;29;20471;-57
2024/01/31 03:10:03;;;;;;;17.98;15.02;;;;;;;;;;4936472;29;20701;-57
2024/01/31 03:12:29;;;;;;;19.67;14.75;;;;;;;;;;4937283;29;20051;-58
2024/01/31 03:14:54;;;;;;;17.80;15.50;;;;;;;;;;4927280;29;20083;-56
2024/01/31 03:17:20;;;;;;;21.35;15.32;;;;;;;;;;4931679;29;20044;-59
2024/01/31 03:19:45;;;;;;;18.50;14.77;;;;;;;;;;4931233;29;20032;-59
2024/01/31 03:22:10;;;;;;;19.95;16.75;;;;;;;;;;4936752;29;20031;-58
2024/01/31 03:24:38;;;;;;;16.92;12.95;;;;;;;;;;4935460;29;20046;-55
2024/01/31 03:27:03;;;;;;;18.73;14.75;;;;;;;;;;4931505;29;20032;-57
2024/01/31 03:29:29;;;;;;;19.27;15.70;;;;;;;;;;4935376;29;20044;-58
2024/01/31 03:31:54;;;;;;;20.08;16.75;;;;;;;;;;4930650;29;20040;-58
2024/01/31 03:34:20;;;;;;;19.42;17.25;;;;;;;;;;4935660;29;20044;-56
2024/01/31 03:36:46;;;;;;;20.92;16.90;;;;;;;;;;4937401;29;20052;-58
2024/01/31 03:39:12;;;;;;;20.25;15.90;;;;;;;;;;4936189;29;20043;-59
2024/01/31 03:41:44;;;;;;;19.48;14.13;;;;;;;;;;4933520;29;20025;-58
2024/01/31 03:44:09;;;;;;;21.50;15.63;;;;;;;;;;4929694;29;20039;-56
2024/01/31 03:46:34;;;;;;;21.05;15.40;;;;;;;;;;4937680;29;20381;-58
2024/01/31 03:49:00;;;;;;;18.92;15.60;;;;;;;;;;4935290;29;20023;-57
2024/01/31 03:51:25;;;;;;;18.55;13.77;;;;;;;;;;4934774;29;20040;-58
2024/01/31 03:53:51;;;;;;;19.65;15.20;;;;;;;;;;4935038;29;20074;-54
2024/01/31 03:56:16;;;;;;;19.42;14.05;;;;;;;;;;4936138;29;20032;-57
2024/01/31 03:58:43;;;;;;;20.98;15.65;;;;;;;;;;4935671;29;20036;-58
2024/01/31 04:01:09;;;;;;;17.90;13.90;;;;;;;;;;4928898;29;20086;-56
2024/01/31 04:03:36;;;;;;;17.38;13.98;;;;;;;;;;4937261;29;20023;-57
2024/01/31 04:06:02;;;;;;;18.48;13.88;;;;;;;;;;4937568;29;20454;-58
2024/01/31 04:08:27;;;;;;;19.20;16.02;;;;;;;;;;4936255;29;20032;-57
2024/01/31 04:10:53;;;;;;;16.58;13.23;;;;;;;;;;4929983;29;20036;-59
2024/01/31 04:13:18;;;;;;;19.50;14.23;;;;;;;;;;4934771;29;20031;-58
2024/01/31 04:15:47;;;;;;;18.70;14.35;;;;;;;;;;4936303;29;20067;-57
2024/01/31 04:18:12;;;;;;;17.70;14.00;;;;;;;;;;4938860;29;20442;-58
2024/01/31 04:20:38;;;;;;;20.23;14.32;;;;;;;;;;4938840;29;20024;-59
2024/01/31 04:23:04;;;;;;;20.00;14.80;;;;;;;;;;4939085;29;20842;-57
2024/01/31 04:25:30;;;;;;;19.73;14.73;;;;;;;;;;4938234;29;20039;-56
2024/01/31 04:27:55;;;;;;;19.42;12.98;;;;;;;;;;4940178;29;20331;-57
2024/01/31 04:30:21;;;;;;;20.50;14.88;;;;;;;;;;4939428;29;20528;-59
2024/01/31 04:32:46;;;;;;;18.38;14.30;;;;;;;;;;4938763;29;20039;-58
2024/01/31 04:35:12;;;;;;;17.23;14.35;;;;;;;;;;4939204;29;20043;-56
2024/01/31 04:37:38;;;;;;;16.40;14.15;;;;;;;;;;4936240;29;20054;-58
2024/01/31 04:40:04;;;;;;;19.90;13.82;;;;;;;;;;4939221;28;20103;-58
2024/01/31 04:42:30;;;;;;;18.85;14.65;;;;;;;;;;4937544;29;20104;-57
2024/01/31 04:44:55;;;;;;;19.42;13.55;;;;;;;;;;4937168;29;20042;-57
2024/01/31 04:47:25;;;;;;;20.45;14.10;;;;;;;;;;4941322;29;20062;-56
2024/01/31 04:49:50;;;;;;;19.50;14.30;;;;;;;;;;4937314;29;20118;-57
2024/01/31 04:52:16;;;;;;;27.33;16.88;;;;;;;;;;4934888;29;20060;-58
2024/01/31 04:54:41;;;;;;;22.73;16.77;;;;;;;;;;4937754;29;20047;-58
2024/01/31 04:57:06;;;;;;;23.35;16.42;;;;;;;;;;4936286;29;20030;-57
2024/01/31 04:59:37;;;;;;;29.02;16.25;;;;;;;;;;4934293;29;20047;-56
2024/01/31 05:02:02;;;;;;;28.42;18.40;;;;;;;;;;4938321;29;20036;-58
2024/01/31 05:04:28;;;;;;;33.38;17.88;;;;;;;;;;4931414;29;20055;-56
2024/01/31 05:06:53;;;;;;;31.92;17.40;;;;;;;;;;4937512;29;20442;-57
2024/01/31 05:09:19;;;;;;;33.25;18.42;;;;;;;;;;4938179;29;20135;-58
2024/01/31 05:11:47;;;;;;;33.05;18.08;;;;;;;;;;4934526;29;20035;-58
2024/01/31 05:14:13;;;;;;;33.78;17.58;;;;;;;;;;4937912;29;20391;-57
2024/01/31 05:16:40;;;;;;;34.50;17.92;;;;;;;;;;4932915;29;20071;-57
2024/01/31 05:19:06;;;;;;;31.98;18.05;;;;;;;;;;4935726;29;20039;-58
2024/01/31 05:21:32;;;;;;;36.38;18.65;;;;;;;;;;4936601;29;20051;-56
2024/01/31 05:23:57;;;;;;;34.58;18.17;;;;;;;;;;4937641;29;20091;-54
2024/01/31 05:26:23;;;;;;;34.72;17.83;;;;;;;;;;4937798;29;20110;-57
2024/01/31 05:28:48;;;;;;;33.90;19.50;;;;;;;;;;4937534;29;20020;-57
2024/01/31 05:31:13;;;;;;;34.72;16.95;;;;;;;;;;4937465;29;20405;-58
2024/01/31 05:33:39;;;;;;;35.65;17.35;;;;;;;;;;4936754;29;20103;-57
2024/01/31 05:36:05;;;;;;;36.67;19.05;;;;;;;;;;4941398;29;20090;-57
2024/01/31 05:38:30;;;;;;;35.42;17.10;;;;;;;;;;4936078;29;20147;-57
2024/01/31 05:40:56;;;;;;;32.85;16.55;;;;;;;;;;4937854;29;20035;-56
2024/01/31 05:43:21;;;;;;;34.80;17.42;;;;;;;;;;4936437;29;20063;-57
2024/01/31 05:45:46;;;;;;;36.83;17.27;;;;;;;;;;4935283;29;20107;-59
2024/01/31 05:48:14;;;;;;;29.63;16.98;;;;;;;;;;4938529;29;20041;-55
2024/01/31 05:50:39;;;;;;;35.80;16.88;;;;;;;;;;4935870;29;20553;-56
2024/01/31 05:53:05;;;;;;;30.63;16.50;;;;;;;;;;4937808;29;20051;-58
2024/01/31 05:55:31;;;;;;;28.98;16.45;;;;;;;;;;4932457;29;20043;-57
2024/01/31 05:57:56;;;;;;;33.47;16.88;;;;;;;;;;4940905;29;20087;-59
2024/01/31 06:00:22;;;;;;;28.90;14.82;;;;;;;;;;4937508;29;20040;-56
2024/01/31 06:02:47;;;;;;;31.33;15.63;;;;;;;;;;4927091;29;20037;-58
2024/01/31 06:05:13;;;;;;;32.05;18.15;;;;;;;;;;4933614;29;20055;-56
2024/01/31 06:07:38;;;;;;;29.50;15.93;;;;;;;;;;4935409;29;20119;-55
2024/01/31 06:10:05;;;;;;;33.28;16.42;;;;;;;;;;4934495;29;20429;-57
2024/01/31 06:12:30;;;;;;;34.38;18.75;;;;;;;;;;4931254;29;20548;-56
2024/01/31 06:14:56;;;;;;;28.88;15.38;;;;;;;;;;4937168;29;20150;-57
2024/01/31 06:17:21;;;;;;;34.47;19.73;;;;;;;;;;4935242;29;20670;-58
2024/01/31 06:19:47;;;;;;;31.42;17.67;;;;;;;;;;4933925;29;20118;-58
2024/01/31 06:22:13;;;;;;;29.15;16.00;;;;;;;;;;4936550;29;20179;-54
2024/01/31 06:24:38;;;;;;;28.67;13.40;;;;;;;;;;4924341;29;20080;-56
2024/01/31 06:27:04;;;;;;;25.77;13.52;;;;;;;;;;4933179;29;20031;-56
2024/01/31 06:29:29;;;;;;;30.67;16.70;;;;;;;;;;4935317;29;20505;-53
2024/01/31 06:31:59;;;;;;;28.25;15.60;;;;;;;;;;4932236;29;20064;-57
2024/01/31 06:34:25;;;;;;;30.45;16.38;;;;;;;;;;4932466;29;20040;-57
2024/01/31 06:36:50;;;;;;;30.40;15.02;;;;;;;;;;4937929;29;20110;-56
2024/01/31 06:39:16;;;;;;;29.33;14.35;;;;;;;;;;4940983;29;20036;-58
2024/01/31 06:41:41;;;;;;;33.33;18.13;;;;;;;;;;4935040;29;20027;-57
2024/01/31 06:44:07;;;;;;;28.95;14.88;;;;;;;;;;4936401;29;20185;-57
2024/01/31 06:46:32;;;;;;;29.55;18.42;;;;;;;;;;4937590;29;20118;-57
2024/01/31 06:48:58;;;;;;;30.30;16.42;;;;;;;;;;4928794;29;20030;-58
2024/01/31 06:51:24;;;;;;;29.05;15.32;;;;;;;;;;4935267;29;20039;-59
2024/01/31 06:53:49;;;;;;;28.33;16.75;;;;;;;;;;4930769;29;20028;-58
2024/01/31 06:56:19;;;;;;;34.08;15.25;;;;;;;;;;4933899;29;20031;-58
2024/01/31 06:58:48;;;;;;;32.85;15.88;;;;;;;;;;4935781;29;20131;-59
2024/01/31 07:01:16;;;;;;;36.92;19.20;;;;;;;;;;4930318;29;20058;-56
2024/01/31 07:03:42;;;;;;;32.60;17.70;;;;;;;;;;4931360;29;20114;-59
2024/01/31 07:06:09;;;;;;;35.33;19.50;;;;;;;;;;4935191;29;20052;-55
2024/01/31 07:08:34;;;;;;;34.55;16.70;;;;;;;;;;4935428;29;20122;-59
2024/01/31 07:11:00;;;;;;;33.38;16.40;;;;;;;;;;4933207;29;20155;-57
2024/01/31 07:13:25;;;;;;;38.03;18.27;;;;;;;;;;4936879;29;20034;-59
2024/01/31 07:15:51;;;;;;;32.92;15.77;;;;;;;;;;4933590;29;20078;-59
2024/01/31 07:18:16;;;;;;;33.45;17.80;;;;;;;;;;4937959;29;20118;-57
2024/01/31 07:20:41;;;;;;;34.25;17.92;;;;;;;;;;4932301;29;20040;-57
2024/01/31 07:23:07;;;;;;;33.20;19.30;;;;;;;;;;4938735;29;20119;-58
2024/01/31 07:25:32;;;;;;;36.78;18.45;;;;;;;;;;4936278;29;20098;-58
2024/01/31 07:27:58;;;;;;;32.80;18.92;;;;;;;;;;4939852;29;20031;-56
2024/01/31 07:30:23;;;;;;;35.00;18.25;;;;;;;;;;4937879;28;20044;-58
2024/01/31 07:32:48;;;;;;;31.75;17.55;;;;;;;;;;4942880;29;20043;-58
2024/01/31 07:35:14;;;;;;;31.38;17.52;;;;;;;;;;4935607;29;20035;-58
2024/01/31 07:37:40;;;;;;;32.67;15.95;;;;;;;;;;4936551;29;20118;-59
2024/01/31 07:40:06;;;;;;;31.48;15.70;;;;;;;;;;4942884;29;20039;-58
2024/01/31 07:42:32;;;;;;;28.73;16.50;;;;;;;;;;4945701;29;20456;-58
2024/01/31 07:44:57;;;;;;;24.35;14.70;;;;;;;;;;4937606;29;20067;-58
2024/01/31 07:47:23;;;;;;;28.65;15.55;;;;;;;;;;4940728;29;20044;-57
2024/01/31 07:49:48;;;;;;;22.55;13.02;;;;;;;;;;4942667;29;20066;-58
2024/01/31 07:52:14;;;;;;;21.90;13.23;;;;;;;;;;4941413;29;20530;-57
2024/01/31 07:54:39;;;;;;;22.30;12.48;;;;;;;;;;4937258;29;20040;-59
2024/01/31 07:57:05;;;;;;;21.67;12.38;;;;;;;;;;4944168;29;20028;-58
2024/01/31 07:59:30;;;;;;;21.58;12.90;;;;;;;;;;4937046;29;20044;-57
2024/01/31 08:01:55;;;;;;;18.75;11.10;;;;;;;;;;4938592;29;20060;-57
2024/01/31 08:04:21;;;;;;;18.48;11.15;;;;;;;;;;4934214;29;20211;-58
2024/01/31 08:06:46;;;;;;;19.70;11.68;;;;;;;;;;4940034;29;20028;-60
2024/01/31 08:09:12;;;;;;;18.17;11.23;;;;;;;;;;4941301;28;20058;-58
2024/01/31 08:11:43;;;;;;;16.90;11.10;;;;;;;;;;4937443;29;20122;-55
2024/01/31 08:14:09;;;;;;;20.05;12.20;;;;;;;;;;4935274;29;20040;-59
2024/01/31 08:16:35;;;;;;;19.55;12.30;;;;;;;;;;4934885;29;20072;-59
2024/01/31 08:19:00;;;;;;;18.83;9.90;;;;;;;;;;4938080;29;20027;-58
2024/01/31 08:21:26;;;;;;;20.23;12.45;;;;;;;;;;4941382;29;20078;-56
2024/01/31 08:23:51;;;;;;;17.63;10.68;;;;;;;;;;4940122;29;20087;-58
2024/01/31 08:26:17;;;;;;;19.50;11.98;;;;;;;;;;4940642;29;20052;-58
2024/01/31 08:28:43;;;;;;;20.13;11.98;;;;;;;;;;4938625;29;20092;-57
2024/01/31 08:31:09;;;;;;;18.65;11.52;;;;;;;;;;4940714;28;20039;-58
2024/01/31 08:33:34;;;;;;;20.27;11.60;;;;;;;;;;4938541;29;20027;-59
2024/01/31 08:35:59;;;;;;;16.25;11.00;;;;;;;;;;4937395;29;20051;-58
2024/01/31 08:38:25;;;;;;;19.05;11.55;;;;;;;;;;4936320;29;20036;-58
2024/01/31 08:40:50;;;;;;;16.55;11.02;;;;;;;;;;4936114;29;20032;-57
2024/01/31 08:43:16;;;;;;;15.80;10.02;;;;;;;;;;4937891;29;20027;-58
2024/01/31 08:45:41;;;;;;;18.75;11.60;;;;;;;;;;4938409;29;20589;-56
2024/01/31 08:48:07;;;;;;;20.15;12.52;;;;;;;;;;4939487;29;20025;-58
2024/01/31 08:50:33;;;;;;;21.05;12.15;;;;;;;;;;4935517;29;20066;-57
2024/01/31 08:52:58;;;;;;;19.38;13.23;;;;;;;;;;4939184;29;20023;-56
2024/01/31 08:55:24;;;;;;;19.38;12.75;;;;;;;;;;4936568;29;20439;-59
2024/01/31 08:57:49;;;;;;;20.40;12.98;;;;;;;;;;4934261;29;20422;-58
2024/01/31 09:00:15;;;;;;;19.70;10.57;;;;;;;;;;4936441;29;20044;-57
2024/01/31 09:02:40;;;;;;;21.60;12.35;;;;;;;;;;4945190;29;20055;-58
2024/01/31 09:05:07;;;;;;;21.55;12.50;;;;;;;;;;4932518;29;20126;-56
2024/01/31 09:07:32;;;;;;;17.70;11.80;;;;;;;;;;4940591;29;20417;-57
2024/01/31 09:09:57;;;;;;;15.88;10.30;;;;;;;;;;4934220;29;20039;-59
2024/01/31 09:12:23;;;;;;;19.58;12.80;;;;;;;;;;4934765;29;20114;-58
2024/01/31 09:14:49;;;;;;;21.77;14.13;;;;;;;;;;4938688;29;20032;-57
2024/01/31 09:17:14;;;;;;;20.38;13.60;;;;;;;;;;4935011;29;20177;-59
2024/01/31 09:19:40;;;;;;;17.23;12.23;;;;;;;;;;4939295;29;20045;-57
2024/01/31 09:22:06;;;;;;;19.90;11.35;;;;;;;;;;4937064;29;20012;-57
2024/01/31 09:24:32;;;;;;;21.38;13.45;;;;;;;;;;4934246;29;20597;-57
2024/01/31 09:26:58;;;;;;;16.90;12.43;;;;;;;;;;4931951;29;20027;-57
2024/01/31 09:29:25;;;;;;;17.35;10.70;;;;;;;;;;4930452;29;20043;-57
2024/01/31 09:31:50;;;;;;;17.48;12.23;;;;;;;;;;4937455;29;20024;-57
2024/01/31 09:34:16;;;;;;;16.30;12.15;;;;;;;;;;4938895;29;20040;-58
2024/01/31 09:36:46;;;;;;;17.25;12.25;;;;;;;;;;4936981;29;20163;-59
2024/01/31 09:39:12;;;;;;;18.50;12.95;;;;;;;;;;4938142;29;20175;-59
2024/01/31 09:41:37;;;;;;;18.30;11.77;;;;;;;;;;4935815;29;20051;-56
2024/01/31 09:44:03;;;;;;;15.55;12.02;;;;;;;;;;4941672;29;20107;-59
2024/01/31 09:46:30;;;;;;;13.55;10.48;;;;;;;;;;4938045;29;20104;-58
2024/01/31 09:48:55;;;;;;;16.75;12.23;;;;;;;;;;4936785;29;20042;-59
2024/01/31 09:51:24;;;;;;;16.65;11.23;;;;;;;;;;4931733;29;20091;-58
2024/01/31 09:53:53;;;;;;;14.45;10.38;;;;;;;;;;4936524;29;20027;-58
2024/01/31 09:56:18;;;;;;;12.32;10.80;;;;;;;;;;4934533;29;20111;-59
2024/01/31 09:58:44;;;;;;;13.13;10.43;;;;;;;;;;4938119;29;20059;-57
2024/01/31 10:01:11;;;;;;;15.25;10.95;;;;;;;;;;4934652;29;20126;-58
2024/01/31 10:03:36;;;;;;;13.68;10.30;;;;;;;;;;4934563;29;20028;-57
2024/01/31 10:06:03;;;;;;;14.23;10.73;;;;;;;;;;4936244;29;20040;-58
2024/01/31 10:08:29;;;;;;;23.75;18.30;;;;;;;;;;4932823;29;20040;-58
2024/01/31 10:10:55;;;;;;;21.25;16.15;;;;;;;;;;4937467;29;20546;-59
2024/01/31 10:13:21;;;;;;;24.05;16.95;;;;;;;;;;4934300;29;20042;-59
2024/01/31 10:15:46;;;;;;;22.15;16.65;;;;;;;;;;4936757;29;20047;-58
2024/01/31 10:18:12;;;;;;;29.13;19.65;;;;;;;;;;4933853;29;20039;-56
2024/01/31 10:20:37;;;;;;;26.30;20.45;;;;;;;;;;4937441;29;20039;-57
2024/01/31 10:23:03;;;;;;;27.48;19.55;;;;;;;;;;4929284;29;20024;-59
2024/01/31 10:25:30;;;;;;;28.33;19.13;;;;;;;;;;4934725;29;20042;-59
2024/01/31 10:27:55;;;;;;;29.10;19.25;;;;;;;;;;4939396;29;20031;-59
2024/01/31 10:30:21;;;;;;;27.05;19.17;;;;;;;;;;4935055;29;20150;-59
2024/01/31 10:32:47;;;;;;;26.55;19.08;;;;;;;;;;4937524;29;20078;-59
2024/01/31 10:35:13;;;;;;;31.25;20.80;;;;;;;;;;4936495;29;20063;-58
2024/01/31 10:37:38;;;;;;;29.02;18.63;;;;;;;;;;4936153;29;20394;-59
2024/01/31 10:40:12;;;;;;;28.45;19.02;;;;;;;;;;4935945;29;20068;-58
2024/01/31 10:42:38;;;;;;;26.40;18.65;;;;;;;;;;4934267;29;20059;-58
2024/01/31 10:45:04;;;;;;;22.42;15.77;;;;;;;;;;4934582;29;20039;-59
2024/01/31 10:47:29;;;;;;;30.60;18.90;;;;;;;;;;4934478;29;20036;-58
2024/01/31 10:49:55;;;;;;;31.15;19.88;;;;;;;;;;4925784;29;20047;-59
2024/01/31 10:52:24;;;;;;;26.88;18.23;;;;;;;;;;4936263;29;20028;-56
2024/01/31 10:54:59;;;;;;;26.08;19.35;;;;;;;;;;4928760;29;20040;-57
2024/01/31 10:57:26;;;;;;;28.52;16.05;;;;;;;;;;4936411;29;20078;-59
2024/01/31 10:59:51;;;;;;;24.08;16.55;;;;;;;;;;4937650;28;20159;-59
2024/01/31 11:02:18;;;;;;;24.88;16.30;;;;;;;;;;4936884;29;20051;-59
2024/01/31 11:04:45;;;;;;;24.73;19.00;;;;;;;;;;4933970;29;20051;-58
2024/01/31 11:07:19;;;;;;;25.58;17.60;;;;;;;;;;4928061;29;20115;-59
2024/01/31 11:09:45;;;;;;;27.48;16.77;;;;;;;;;;4937963;29;20043;-58
2024/01/31 11:12:13;;;;;;;24.95;16.42;;;;;;;;;;4936982;29;20406;-58
2024/01/31 11:14:41;;;;;;;23.60;16.20;;;;;;;;;;4935889;29;20040;-59
2024/01/31 11:17:34;;;;;;;26.00;15.80;;;;;;;;;;4931702;29;20063;-57
2024/01/31 11:20:01;;;;;;;23.50;16.80;;;;;;;;;;4935132;29;20042;-59
2024/01/31 11:22:28;;;;;;;29.75;16.90;;;;;;;;;;4939414;29;20027;-59
2024/01/31 11:24:54;;;;;;;27.08;18.85;;;;;;;;;;4926996;29;20096;-57
2024/01/31 11:27:21;;;;;;;25.92;17.65;;;;;;;;;;4935518;29;20048;-57
2024/01/31 11:29:50;;;;;;;27.10;17.27;;;;;;;;;;4936022;29;20039;-57
2024/01/31 11:32:21;;;;;;;28.45;19.20;;;;;;;;;;4935257;29;20067;-57
2024/01/31 11:35:06;;;;;;;26.52;18.77;;;;;;;;;;4934974;29;20048;-59
2024/01/31 11:37:31;;;;;;;23.92;16.40;;;;;;;;;;4938119;29;20031;-59
2024/01/31 11:39:57;;;;;;;23.75;16.38;;;;;;;;;;4934355;29;20043;-57
2024/01/31 11:42:23;;;;;;;27.75;18.80;;;;;;;;;;4935625;29;20051;-58
2024/01/31 11:44:49;;;;;;;25.05;18.17;;;;;;;;;;4934453;29;20115;-58
2024/01/31 11:47:15;;;;;;;23.35;16.60;;;;;;;;;;4937221;29;20027;-58
2024/01/31 11:49:41;;;;;;;20.25;14.90;;;;;;;;;;4931650;28;20052;-57
2024/01/31 11:52:07;;;;;;;23.70;15.10;;;;;;;;;;4936238;29;20370;-59
2024/01/31 11:54:32;;;;;;;22.38;16.80;;;;;;;;;;4934818;29;20502;-58
2024/01/31 11:56:58;;;;;;;22.30;15.38;;;;;;;;;;4935075;29;20022;-59
2024/01/31 11:59:24;;;;;;;20.73;14.68;;;;;;;;;;4928747;29;20057;-59
2024/01/31 12:01:49;;;;;;;20.83;15.90;;;;;;;;;;4937034;29;20399;-59
2024/01/31 12:04:14;;;;;;;22.00;16.98;;;;;;;;;;4931575;29;20049;-59
2024/01/31 12:06:40;;;;;;;20.90;16.02;;;;;;;;;;4935275;29;20466;-58
2024/01/31 12:09:05;;;;;;;23.60;16.65;;;;;;;;;;4931985;29;20040;-59
2024/01/31 12:11:32;;;;;;;19.65;15.82;;;;;;;;;;4934750;29;20039;-60
2024/01/31 12:13:58;;;;;;;21.77;15.63;;;;;;;;;;4934823;29;20394;-58
2024/01/31 12:16:23;;;;;;;17.45;15.07;;;;;;;;;;4935162;29;20063;-56
2024/01/31 12:19:01;;;;;;;17.63;13.38;;;;;;;;;;4934698;29;20111;-60
2024/01/31 12:21:27;;;;;;;20.38;13.93;;;;;;;;;;4936319;29;20478;-57
2024/01/31 12:23:52;;;;;;;20.83;16.42;;;;;;;;;;4930774;29;20038;-59
2024/01/31 12:26:19;;;;;;;21.65;14.23;;;;;;;;;;4939193;29;20028;-59
2024/01/31 12:28:55;;;;;;;20.63;15.32;;;;;;;;;;4938746;29;20035;-59
2024/01/31 12:31:21;;;;;;;19.88;15.25;;;;;;;;;;4932502;29;20048;-59
2024/01/31 12:33:46;;;;;;;18.75;15.10;;;;;;;;;;4936813;29;20035;-56
2024/01/31 12:36:12;;;;;;;20.25;15.25;;;;;;;;;;4939429;29;20031;-58
2024/01/31 12:38:37;;;;;;;19.15;14.90;;;;;;;;;;4940238;29;20028;-58
2024/01/31 12:41:03;;;;;;;20.35;17.25;;;;;;;;;;4936626;28;20051;-59
2024/01/31 12:43:28;;;;;;;21.92;15.50;;;;;;;;;;4941326;29;20355;-60
2024/01/31 12:45:53;;;;;;;24.02;17.80;;;;;;;;;;4939721;29;20499;-59
2024/01/31 12:48:19;;;;;;;22.95;17.00;;;;;;;;;;4937619;29;20494;-59
2024/01/31 12:50:44;;;;;;;23.83;16.85;;;;;;;;;;4934747;29;20078;-59
2024/01/31 12:53:09;;;;;;;21.98;16.45;;;;;;;;;;4938796;29;20032;-58
2024/01/31 12:55:35;;;;;;;22.25;18.02;;;;;;;;;;4936859;29;20521;-58
2024/01/31 12:58:00;;;;;;;19.40;15.60;;;;;;;;;;4937429;29;20037;-60
2024/01/31 13:00:26;;;;;;;21.40;15.68;;;;;;;;;;4931403;29;20039;-59
2024/01/31 13:02:51;;;;;;;22.75;15.68;;;;;;;;;;4939158;29;20094;-60
2024/01/31 13:05:17;;;;;;;21.35;15.50;;;;;;;;;;4937494;29;20071;-59
2024/01/31 13:07:42;;;;;;;19.60;15.15;;;;;;;;;;4940571;29;20533;-59
2024/01/31 13:10:08;;;;;;;21.80;15.50;;;;;;;;;;4932101;29;20048;-58
2024/01/31 13:12:33;;;;;;;20.52;15.07;;;;;;;;;;4939457;29;20682;-59
2024/01/31 13:14:59;;;;;;;17.75;13.88;;;;;;;;;;4934745;29;20521;-59
2024/01/31 13:17:25;;;;;;;19.35;14.98;;;;;;;;;;4949168;28;20080;-60
2024/01/31 13:19:51;;;;;;;17.13;13.65;;;;;;;;;;4932244;29;20039;-60
2024/01/31 13:22:16;;;;;;;18.48;14.02;;;;;;;;;;4940831;29;20027;-58
2024/01/31 13:24:41;;;;;;;19.27;14.90;;;;;;;;;;4939595;28;20552;-60
2024/01/31 13:27:07;;;;;;;16.42;14.05;;;;;;;;;;4940577;29;20024;-59
2024/01/31 13:29:32;;;;;;;17.52;11.73;;;;;;;;;;4934286;29;20075;-60
2024/01/31 13:31:58;;;;;;;19.77;12.00;;;;;;;;;;4934239;29;20030;-59
2024/01/31 13:34:23;;;;;;;17.55;12.38;;;;;;;;;;4935272;29;20098;-59
2024/01/31 13:36:51;;;;;;;19.55;13.48;;;;;;;;;;4933739;29;20467;-59
2024/01/31 13:39:17;;;;;;;17.52;12.48;;;;;;;;;;4933494;29;20039;-59
2024/01/31 13:41:43;;;;;;;13.65;11.25;;;;;;;;;;4930023;29;20123;-59
2024/01/31 13:44:08;;;;;;;16.73;11.70;;;;;;;;;;4935886;29;20044;-59
2024/01/31 13:46:33;;;;;;;14.50;11.70;;;;;;;;;;4934532;29;20441;-59
2024/01/31 13:50:05;;;;;;;16.73;15.13;;;;;;;;;;5027937;28;20602;-56
2024/01/31 13:52:30;;;;;;;14.65;13.00;;;;;;;;;;5040440;28;20033;-59
2024/01/31 13:54:55;;;;;;;13.80;12.40;;;;;;;;;;5045335;28;20051;-58
2024/01/31 13:57:21;;;;;;;17.40;14.27;;;;;;;;;;5046226;28;20484;-59
2024/01/31 13:59:46;;;;;;;12.20;10.23;;;;;;;;;;5045653;28;20038;-58
2024/01/31 14:02:11;;;;;;;17.80;11.88;;;;;;;;;;5050552;28;20111;-58
2024/01/31 14:04:38;;;;;;;14.25;11.23;;;;;;;;;;5055392;28;20036;-58
2024/01/31 14:07:03;;;;;;;15.88;14.25;;;;;;;;;;5039633;28;20033;-58
2024/01/31 14:09:29;;;;;;;16.08;10.20;;;;;;;;;;5044790;28;20025;-56